createdAt,value
2023-02-12T00:00:52.330Z,3.91
2023-02-12T00:02:53.344Z,3.91
2023-02-12T00:04:54.922Z,3.9
2023-02-12T00:06:56.068Z,3.89
2023-02-12T00:08:57.555Z,3.85
2023-02-12T00:10:59.241Z,3.85
2023-02-12T00:13:00.345Z,3.8
2023-02-12T00:15:01.706Z,3.8
2023-02-12T00:17:02.820Z,3.78
2023-02-12T00:19:04.231Z,3.78
2023-02-12T00:21:05.494Z,3.79
2023-02-12T00:23:06.514Z,3.72
2023-02-12T00:25:08.179Z,3.72
2023-02-12T00:27:09.890Z,3.74
2023-02-12T00:29:11.758Z,3.77
2023-02-12T00:31:13.812Z,3.81
2023-02-12T00:33:14.741Z,3.82
2023-02-12T00:35:16.128Z,3.83
2023-02-12T00:37:17.355Z,3.85
2023-02-12T00:39:18.392Z,3.87
2023-02-12T00:41:19.456Z,3.88
2023-02-12T00:43:20.880Z,3.86
2023-02-12T00:45:22.476Z,3.85
2023-02-12T00:47:24.179Z,3.8
2023-02-12T00:49:25.317Z,3.79
2023-02-12T00:51:27.038Z,3.78
2023-02-12T00:53:28.763Z,3.76
2023-02-12T00:55:30.064Z,3.76
2023-02-12T00:57:31.429Z,3.74
2023-02-12T00:59:32.634Z,3.74
2023-02-12T01:01:33.704Z,3.77
2023-02-12T01:03:34.722Z,3.77
2023-02-12T01:05:36.223Z,3.77
2023-02-12T01:07:38.165Z,3.61
2023-02-12T01:09:39.841Z,3.53
2023-02-12T01:11:40.941Z,3.52
2023-02-12T01:13:42.390Z,3.53
2023-02-12T01:15:43.974Z,3.58
2023-02-12T01:17:45.553Z,3.61
2023-02-12T01:19:47.081Z,3.59
2023-02-12T01:21:48.644Z,3.6
2023-02-12T01:23:50.215Z,3.63
2023-02-12T01:25:51.481Z,3.65
2023-02-12T01:27:53.121Z,3.72
2023-02-12T01:29:54.682Z,3.72
2023-02-12T01:31:55.812Z,3.75
2023-02-12T01:33:57.266Z,3.76
2023-02-12T01:35:59.218Z,3.75
2023-02-12T01:38:00.831Z,3.75
2023-02-12T01:40:02.700Z,3.78
2023-02-12T01:42:04.356Z,3.68
2023-02-12T01:44:06.190Z,3.55
2023-02-12T01:46:07.998Z,3.53
2023-02-12T01:48:09.091Z,3.54
2023-02-12T01:50:10.787Z,3.52
2023-02-12T01:52:12.428Z,3.49
2023-02-12T01:54:13.791Z,3.49
2023-02-12T01:56:15.181Z,3.49
2023-02-12T01:58:16.542Z,3.45
2023-02-12T02:00:17.615Z,3.44
2023-02-12T02:02:19.356Z,3.43
2023-02-12T02:04:20.981Z,3.43
2023-02-12T02:06:22.149Z,3.48
2023-02-12T02:08:23.286Z,3.45
2023-02-12T02:10:25.237Z,3.32
2023-02-12T02:12:27.056Z,3.32
2023-02-12T02:14:28.938Z,3.27
2023-02-12T02:16:30.041Z,3.25
2023-02-12T02:18:31.428Z,3.32
2023-02-12T02:20:33.373Z,3.3
2023-02-12T02:22:35.189Z,3.32
2023-02-12T02:23:19.075Z,3.33
2023-02-12T02:25:20.118Z,3.34
2023-02-12T02:27:21.431Z,3.4
2023-02-12T02:29:22.460Z,3.43
2023-02-12T02:31:24.188Z,3.43
2023-02-12T02:33:26.026Z,3.41
2023-02-12T02:35:27.690Z,3.47
2023-02-12T02:37:29.591Z,3.49
2023-02-12T02:39:30.666Z,3.52
2023-02-12T02:41:32.282Z,3.51
2023-02-12T02:43:34.154Z,3.58
2023-02-12T02:45:35.322Z,3.55
2023-02-12T02:47:36.442Z,3.39
2023-02-12T02:49:38.175Z,3.42
2023-02-12T02:51:40.061Z,3.33
2023-02-12T02:55:44.021Z,3.28
2023-02-12T02:57:45.684Z,3.27
2023-02-12T02:59:47.237Z,3.3
2023-02-12T03:01:48.473Z,3.29
2023-02-12T03:03:49.980Z,3.34
2023-02-12T03:05:51.156Z,3.37
2023-02-12T03:07:52.574Z,3.34
2023-02-12T03:09:53.805Z,3.33
2023-02-12T03:11:55.649Z,3.32
2023-02-12T03:13:56.675Z,3.33
2023-02-12T03:15:58.711Z,3.32
2023-02-12T03:17:59.803Z,3.34
2023-02-12T03:20:01.479Z,3.33
2023-02-12T03:22:03.088Z,3.42
2023-02-12T03:24:04.281Z,3.5
2023-02-12T03:26:05.463Z,3.5
2023-02-12T03:28:06.644Z,3.52
2023-02-12T03:30:07.633Z,3.43
2023-02-12T03:32:08.770Z,3.42
2023-02-12T03:34:09.995Z,3.46
2023-02-12T03:38:13.048Z,3.48
2023-02-12T03:40:14.584Z,3.5
2023-02-12T03:42:16.317Z,3.48
2023-02-12T03:44:17.855Z,3.48
2023-02-12T03:46:19.772Z,3.5
2023-02-12T03:48:21.427Z,3.54
2023-02-12T03:50:22.474Z,3.52
2023-02-12T03:52:23.765Z,3.55
2023-02-12T03:54:24.811Z,3.59
2023-02-12T03:56:26.556Z,3.67
2023-02-12T03:58:28.524Z,3.74
2023-02-12T04:00:30.400Z,3.77
2023-02-12T04:02:31.745Z,3.74
2023-02-12T04:04:33.324Z,3.75
2023-02-12T04:06:35.135Z,3.76
2023-02-12T04:08:36.899Z,3.72
2023-02-12T04:10:38.073Z,3.76
2023-02-12T04:12:39.595Z,3.77
2023-02-12T04:14:40.699Z,3.77
2023-02-12T04:16:42.283Z,3.77
2023-02-12T04:18:43.841Z,3.72
2023-02-12T04:20:45.178Z,3.71
2023-02-12T04:22:47.044Z,3.73
2023-02-12T04:24:49.037Z,3.72
2023-02-12T04:26:50.499Z,3.73
2023-02-12T04:28:52.001Z,3.76
2023-02-12T04:30:53.649Z,3.75
2023-02-12T04:32:54.891Z,3.76
2023-02-12T04:34:56.850Z,3.77
2023-02-12T04:36:58.618Z,3.8
2023-02-12T04:39:00.293Z,3.8
2023-02-12T04:41:01.460Z,3.79
2023-02-12T04:43:03.317Z,3.78
2023-02-12T04:45:04.897Z,3.82
2023-02-12T04:47:06.654Z,3.78
2023-02-12T04:49:07.640Z,3.8
2023-02-12T04:51:09.146Z,3.81
2023-02-12T04:53:10.655Z,3.81
2023-02-12T04:55:12.285Z,3.82
2023-02-12T04:57:13.615Z,3.82
2023-02-12T04:59:15.206Z,3.8
2023-02-12T05:01:16.708Z,3.78
2023-02-12T05:03:18.516Z,3.72
2023-02-12T05:05:19.750Z,3.69
2023-02-12T05:07:21.263Z,3.64
2023-02-12T05:09:22.991Z,3.62
2023-02-12T05:11:24.098Z,3.56
2023-02-12T05:13:25.217Z,3.61
2023-02-12T05:15:26.656Z,3.61
2023-02-12T05:17:28.630Z,3.6
2023-02-12T05:19:30.467Z,3.57
2023-02-12T05:21:31.925Z,3.59
2023-02-12T05:23:33.540Z,3.6
2023-02-12T05:25:35.410Z,3.59
2023-02-12T05:27:37.038Z,3.67
2023-02-12T05:29:38.433Z,3.71
2023-02-12T05:31:39.686Z,3.72
2023-02-12T05:33:40.586Z,3.65
2023-02-12T05:35:42.482Z,3.62
2023-02-12T05:37:44.377Z,3.58
2023-02-12T05:39:45.795Z,3.63
2023-02-12T05:41:46.848Z,3.65
2023-02-12T05:43:49.799Z,3.64
2023-02-12T05:45:50.600Z,3.68
2023-02-12T05:47:52.373Z,3.71
2023-02-12T05:49:53.992Z,3.7
2023-02-12T05:51:55.778Z,3.64
2023-02-12T05:53:56.803Z,3.65
2023-02-12T05:55:58.025Z,3.62
2023-02-12T05:57:59.730Z,3.64
2023-02-12T06:00:00.973Z,3.62
2023-02-12T06:02:02.383Z,3.66
2023-02-12T06:04:03.399Z,3.63
2023-02-12T06:06:05.188Z,3.63
2023-02-12T06:08:06.645Z,3.66
2023-02-12T06:10:08.142Z,3.63
2023-02-12T06:12:09.257Z,3.51
2023-02-12T06:14:10.799Z,3.55
2023-02-12T06:16:11.920Z,3.53
2023-02-12T06:18:13.707Z,3.54
2023-02-12T06:20:15.500Z,3.5
2023-02-12T06:22:17.366Z,3.53
2023-02-12T06:24:19.235Z,3.53
2023-02-12T06:26:20.977Z,3.55
2023-02-12T06:28:22.708Z,3.61
2023-02-12T06:30:24.030Z,3.68
2023-02-12T06:32:25.534Z,3.68
2023-02-12T06:34:27.187Z,3.72
2023-02-12T06:36:29.154Z,3.7
2023-02-12T06:38:30.547Z,3.51
2023-02-12T06:40:32.231Z,3.45
2023-02-12T06:42:33.508Z,3.45
2023-02-12T06:44:34.606Z,3.46
2023-02-12T06:46:36.458Z,3.49
2023-02-12T06:48:37.412Z,3.63
2023-02-12T06:50:39.314Z,3.6
2023-02-12T06:52:41.078Z,3.47
2023-02-12T06:54:42.922Z,3.54
2023-02-12T06:56:43.949Z,3.49
2023-02-12T06:58:45.237Z,3.43
2023-02-12T07:00:46.428Z,3.47
2023-02-12T07:02:47.624Z,3.53
2023-02-12T07:04:48.699Z,3.55
2023-02-12T07:06:50.098Z,3.6
2023-02-12T07:08:51.461Z,3.69
2023-02-12T07:10:53.184Z,3.74
2023-02-12T07:12:54.577Z,3.77
2023-02-12T07:14:55.774Z,3.81
2023-02-12T07:16:57.557Z,3.85
2023-02-12T07:18:58.929Z,3.83
2023-02-12T07:21:00.536Z,3.9
2023-02-12T07:23:01.606Z,3.94
2023-02-12T07:27:05.032Z,3.85
2023-02-12T07:29:06.210Z,3.82
2023-02-12T07:31:07.952Z,3.77
2023-02-12T07:33:09.505Z,3.71
2023-02-12T07:35:11.122Z,3.74
2023-02-12T07:37:12.637Z,3.78
2023-02-12T07:39:14.167Z,3.78
2023-02-12T07:41:15.345Z,3.82
2023-02-12T07:43:16.539Z,3.87
2023-02-12T07:45:17.591Z,3.86
2023-02-12T07:47:19.109Z,3.95
2023-02-12T07:49:20.873Z,4.02
2023-02-12T07:51:22.469Z,4.12
2023-02-12T07:53:24.115Z,4.15
2023-02-12T07:55:25.082Z,4.26
2023-02-12T07:57:26.286Z,4.29
2023-02-12T07:59:28.126Z,4.37
2023-02-12T08:01:29.656Z,4.48
2023-02-12T08:03:30.882Z,4.56
2023-02-12T08:05:32.735Z,4.62
2023-02-12T08:07:34.613Z,4.66
2023-02-12T08:09:36.469Z,4.69
2023-02-12T08:11:37.891Z,4.67
2023-02-12T08:13:39.798Z,4.71
2023-02-12T08:15:41.603Z,4.78
2023-02-12T08:17:42.928Z,4.81
2023-02-12T08:19:44.290Z,4.84
2023-02-12T08:21:45.847Z,4.83
2023-02-12T08:23:47.033Z,4.82
2023-02-12T08:25:48.036Z,4.89
2023-02-12T08:27:49.221Z,4.95
2023-02-12T08:29:50.958Z,5.02
2023-02-12T08:31:52.385Z,5.04
2023-02-12T08:33:53.392Z,5.01
2023-02-12T08:35:55.693Z,4.92
2023-02-12T08:37:55.954Z,4.87
2023-02-12T08:39:57.331Z,4.8
2023-02-12T08:41:58.833Z,4.77
2023-02-12T08:43:59.873Z,4.75
2023-02-12T08:46:01.752Z,4.73
2023-02-12T08:48:03.153Z,4.8
2023-02-12T08:50:04.357Z,4.9
2023-02-12T08:52:06.055Z,4.98
2023-02-12T08:54:07.132Z,5.12
2023-02-12T08:56:08.879Z,5.23
2023-02-12T08:58:10.270Z,5.35
2023-02-12T09:00:11.262Z,5.54
2023-02-12T09:02:12.733Z,5.51
2023-02-12T09:04:13.985Z,5.52
2023-02-12T09:06:15.643Z,5.55
2023-02-12T09:08:16.978Z,5.81
2023-02-12T09:09:00.810Z,5.9
2023-02-12T09:11:02.407Z,5.8
2023-02-12T09:13:03.549Z,6.04
2023-02-12T09:15:05.084Z,6.13
2023-02-12T09:17:06.324Z,6.28
2023-02-12T09:19:07.586Z,6.51
2023-02-12T09:21:09.242Z,6.82
2023-02-12T09:23:10.884Z,6.92
2023-02-12T09:25:12.327Z,7.01
2023-02-12T09:27:13.236Z,7.23
2023-02-12T09:29:14.597Z,7.49
2023-02-12T09:31:16.539Z,7.54
2023-02-12T09:33:17.466Z,7.41
2023-02-12T09:35:19.109Z,7.37
2023-02-12T09:37:20.122Z,7.35
2023-02-12T09:39:21.805Z,7.27
2023-02-12T09:41:23.504Z,7.17
2023-02-12T09:43:24.729Z,7.29
2023-02-12T09:45:25.971Z,6.71
2023-02-12T09:47:27.451Z,7.02
2023-02-12T09:49:28.675Z,7.32
2023-02-12T09:51:29.829Z,7.47
2023-02-12T09:53:31.576Z,7.31
2023-02-12T09:55:33.765Z,7.81
2023-02-12T09:57:34.736Z,7.94
2023-02-12T09:59:36.544Z,7.68
2023-02-12T10:01:38.414Z,7.76
2023-02-12T10:03:40.130Z,7.59
2023-02-12T10:05:41.205Z,7.61
2023-02-12T10:07:42.036Z,7.93
2023-02-12T10:09:43.434Z,8.21
2023-02-12T10:11:44.584Z,8.04
2023-02-12T10:13:46.732Z,7.93
2023-02-12T10:15:48.203Z,8.27
2023-02-12T10:17:49.841Z,8.57
2023-02-12T10:19:50.879Z,8.63
2023-02-12T10:21:52.462Z,8.58
2023-02-12T10:23:54.110Z,8.42
2023-02-12T10:27:57.032Z,9.07
2023-02-12T10:29:58.721Z,9.09
2023-02-12T10:31:59.731Z,9.23
2023-02-12T10:34:01.069Z,9.49
2023-02-12T10:36:02.159Z,9.76
2023-02-12T10:38:03.819Z,9.72
2023-02-12T10:40:04.852Z,9.79
2023-02-12T10:42:06.663Z,9.32
2023-02-12T10:44:09.165Z,9.21
2023-02-12T10:46:10.578Z,8.89
2023-02-12T10:48:12.525Z,9.03
2023-02-12T10:50:13.606Z,9.23
2023-02-12T10:52:15.150Z,9.23
2023-02-12T10:54:16.313Z,9.68
2023-02-12T10:56:17.556Z,9.82
2023-02-12T10:58:19.120Z,9.58
2023-02-12T11:00:20.104Z,10.03
2023-02-12T11:02:21.289Z,10.59
2023-02-12T11:04:22.464Z,10.89
2023-02-12T11:06:23.812Z,10.45
2023-02-12T11:10:26.352Z,9.88
2023-02-12T11:12:27.481Z,10.23
2023-02-12T11:14:28.825Z,10.47
2023-02-12T11:16:30.456Z,10.13
2023-02-12T11:18:32.388Z,10.05
2023-02-12T11:20:33.484Z,9.83
2023-02-12T11:22:34.860Z,9.85
2023-02-12T11:24:36.247Z,9.7
2023-02-12T11:26:38.088Z,9.69
2023-02-12T11:28:39.593Z,9.84
2023-02-12T11:30:40.916Z,10.02
2023-02-12T11:32:42.527Z,9.81
2023-02-12T11:34:44.346Z,9.77
2023-02-12T11:36:45.290Z,9.44
2023-02-12T11:38:47.091Z,9.29
2023-02-12T11:42:50.399Z,9.19
2023-02-12T11:44:52.052Z,8.99
2023-02-12T11:46:53.450Z,9.16
2023-02-12T11:48:54.482Z,9.02
2023-02-12T11:50:56.023Z,9.03
2023-02-12T11:52:57.686Z,8.98
2023-02-12T11:55:08.342Z,9.16
2023-02-12T11:57:00.729Z,8.94
2023-02-12T11:59:01.938Z,8.86
2023-02-12T12:01:03.737Z,8.94
2023-02-12T12:03:05.330Z,9.14
2023-02-12T12:05:06.660Z,9.27
2023-02-12T12:07:08.048Z,9.27
2023-02-12T12:09:09.215Z,9.3
2023-02-12T12:11:10.965Z,9.19
2023-02-12T12:13:12.350Z,9.35
2023-02-12T12:15:13.504Z,9.54
2023-02-12T12:17:15.167Z,9.38
2023-02-12T12:19:16.850Z,9.14
2023-02-12T12:21:18.393Z,9.06
2023-02-12T12:23:20.028Z,8.99
2023-02-12T12:25:21.411Z,8.98
2023-02-12T12:27:22.685Z,8.95
2023-02-12T12:29:23.862Z,8.93
2023-02-12T12:31:25.325Z,8.86
2023-02-12T12:33:26.288Z,9.12
2023-02-12T12:35:27.467Z,9.13
2023-02-12T12:37:28.779Z,9
2023-02-12T12:39:30.097Z,8.95
2023-02-12T12:41:31.670Z,9.11
2023-02-12T12:43:33.321Z,8.95
2023-02-12T12:45:35.418Z,9.05
2023-02-12T12:47:37.333Z,9.11
2023-02-12T12:49:39.057Z,9.33
2023-02-12T12:51:40.451Z,9.31
2023-02-12T12:53:41.612Z,9.26
2023-02-12T12:55:42.778Z,9.29
2023-02-12T12:57:45.346Z,9.42
2023-02-12T12:59:46.596Z,9.33
2023-02-12T13:01:47.861Z,9.4
2023-02-12T13:03:49.428Z,9.36
2023-02-12T13:05:50.393Z,9.49
2023-02-12T13:07:52.097Z,9.49
2023-02-12T13:09:53.079Z,9.68
2023-02-12T13:11:54.677Z,9.71
2023-02-12T13:13:56.018Z,9.75
2023-02-12T13:15:57.979Z,9.83
2023-02-12T13:17:58.844Z,9.69
2023-02-12T13:19:59.810Z,9.77
2023-02-12T13:22:01.287Z,9.64
2023-02-12T13:24:02.652Z,9.76
2023-02-12T13:26:04.691Z,9.64
2023-02-12T13:28:06.125Z,10.09
2023-02-12T13:30:07.232Z,10.32
2023-02-12T13:32:08.196Z,10.25
2023-02-12T13:34:09.118Z,10.44
2023-02-12T13:36:10.386Z,10.74
2023-02-12T13:38:12.102Z,10.18
2023-02-12T13:40:13.883Z,10.14
2023-02-12T13:42:15.092Z,10
2023-02-12T13:44:16.388Z,10.1
2023-02-12T13:46:17.430Z,9.68
2023-02-12T13:48:19.265Z,9.96
2023-02-12T13:50:20.276Z,10
2023-02-12T13:52:21.926Z,9.91
2023-02-12T13:54:23.250Z,9.72
2023-02-12T13:56:26.398Z,9.8
2023-02-12T13:58:25.822Z,10.05
2023-02-12T14:00:27.423Z,10.41
2023-02-12T14:02:29.517Z,10.23
2023-02-12T14:06:31.821Z,10.15
2023-02-12T14:08:33.077Z,10.28
2023-02-12T14:10:34.843Z,10.34
2023-02-12T14:12:35.830Z,10.28
2023-02-12T14:14:37.258Z,9.48
2023-02-12T14:16:39.007Z,9.28
2023-02-12T14:18:40.720Z,9.23
2023-02-12T14:20:42.421Z,9.5
2023-02-12T14:22:44.083Z,9.72
2023-02-12T14:24:45.406Z,9.79
2023-02-12T14:26:47.133Z,10.09
2023-02-12T14:28:48.304Z,9.81
2023-02-12T14:30:49.737Z,9.89
2023-02-12T14:32:51.172Z,10.13
2023-02-12T14:34:52.511Z,9.96
2023-02-12T14:36:54.311Z,9.48
2023-02-12T14:38:55.842Z,9.25
2023-02-12T14:40:57.682Z,9.25
2023-02-12T14:42:59.111Z,9.31
2023-02-12T14:45:00.445Z,9.64
2023-02-12T14:47:01.930Z,9.56
2023-02-12T14:49:03.419Z,9.39
2023-02-12T14:51:04.716Z,9.19
2023-02-12T14:53:05.890Z,9.03
2023-02-12T14:55:06.818Z,9.09
2023-02-12T14:57:08.255Z,9.05
2023-02-12T14:59:09.250Z,9.31
2023-02-12T15:01:10.850Z,9.41
2023-02-12T15:03:12.251Z,9.34
2023-02-12T15:05:13.922Z,9.32
2023-02-12T15:07:15.070Z,9.14
2023-02-12T15:09:16.066Z,9.18
2023-02-12T15:11:17.187Z,8.98
2023-02-12T15:13:18.610Z,9.01
2023-02-12T15:15:20.170Z,9
2023-02-12T15:17:21.557Z,8.92
2023-02-12T15:19:22.780Z,8.96
2023-02-12T15:21:24.058Z,8.83
2023-02-12T15:23:25.067Z,8.78
2023-02-12T15:25:26.280Z,8.79
2023-02-12T15:27:28.078Z,8.76
2023-02-12T15:29:29.640Z,8.72
2023-02-12T15:31:30.893Z,8.79
2023-02-12T15:33:32.382Z,8.72
2023-02-12T15:35:34.214Z,8.6
2023-02-12T15:37:35.354Z,8.6
2023-02-12T15:39:36.381Z,8.53
2023-02-12T15:41:37.377Z,8.46
2023-02-12T15:43:38.980Z,8.48
2023-02-12T15:45:40.849Z,8.43
2023-02-12T15:47:42.374Z,8.44
2023-02-12T15:49:44.178Z,8.43
2023-02-12T15:51:45.241Z,8.39
2023-02-12T15:53:46.245Z,8.38
2023-02-12T15:56:31.399Z,8.39
2023-02-12T15:58:32.878Z,8.36
2023-02-12T16:00:34.711Z,8.34
2023-02-12T16:02:36.260Z,8.32
2023-02-12T16:04:37.198Z,8.25
2023-02-12T16:06:38.517Z,8.22
2023-02-12T16:08:40.223Z,8.17
2023-02-12T16:10:42.000Z,8.11
2023-02-12T16:12:43.499Z,8.05
2023-02-12T16:14:44.855Z,8.03
2023-02-12T16:16:46.608Z,7.97
2023-02-12T16:18:48.441Z,7.95
2023-02-12T16:20:49.612Z,7.89
2023-02-12T16:24:52.647Z,7.82
2023-02-12T16:26:54.525Z,7.79
2023-02-12T16:28:55.744Z,7.77
2023-02-12T16:30:57.002Z,7.76
2023-02-12T16:32:58.172Z,7.74
2023-02-12T16:34:59.750Z,7.74
2023-02-12T16:37:00.736Z,7.68
2023-02-12T16:39:02.725Z,7.59
2023-02-12T16:41:03.706Z,7.57
2023-02-12T16:43:05.601Z,7.52
2023-02-12T16:45:06.726Z,7.53
2023-02-12T16:47:08.076Z,7.48
2023-02-12T16:49:09.700Z,7.47
2023-02-12T16:51:11.129Z,7.46
2023-02-12T16:53:12.175Z,7.38
2023-02-12T16:55:13.435Z,7.38
2023-02-12T16:57:15.217Z,7.35
2023-02-12T16:59:16.222Z,7.28
2023-02-12T17:01:17.744Z,7.24
2023-02-12T17:03:19.379Z,7.23
2023-02-12T17:05:20.830Z,7.21
2023-02-12T17:07:22.014Z,7.14
2023-02-12T17:09:23.826Z,7.03
2023-02-12T17:11:25.480Z,6.9
2023-02-12T17:13:26.783Z,6.82
2023-02-12T17:15:27.854Z,6.82
2023-02-12T17:17:28.944Z,6.77
2023-02-12T17:19:30.352Z,6.62
2023-02-12T17:21:31.522Z,6.44
2023-02-12T17:23:32.609Z,6.38
2023-02-12T17:25:33.841Z,6.41
2023-02-12T17:27:36.759Z,6.32
2023-02-12T17:29:36.382Z,6.2
2023-02-12T17:31:38.339Z,6.15
2023-02-12T17:33:39.723Z,6.07
2023-02-12T17:35:40.681Z,6.02
2023-02-12T17:37:41.829Z,5.99
2023-02-12T17:39:42.870Z,5.86
2023-02-12T17:41:44.594Z,5.82
2023-02-12T17:43:46.153Z,5.91
2023-02-12T17:45:47.693Z,5.73
2023-02-12T17:47:48.761Z,5.66
2023-02-12T17:49:49.881Z,5.49
2023-02-12T17:51:51.662Z,5.41
2023-02-12T17:53:52.776Z,5.3
2023-02-12T17:55:54.614Z,5.19
2023-02-12T17:57:56.189Z,5.07
2023-02-12T17:59:57.211Z,4.97
2023-02-12T18:01:58.742Z,4.9
2023-02-12T18:04:00.684Z,4.78
2023-02-12T18:06:01.911Z,4.76
2023-02-12T18:08:03.023Z,4.51
2023-02-12T18:10:04.433Z,4.51
2023-02-12T18:12:06.433Z,4.48
2023-02-12T18:14:08.105Z,4.44
2023-02-12T18:16:09.309Z,4.48
2023-02-12T18:18:10.473Z,4.43
2023-02-12T18:20:12.292Z,4.37
2023-02-12T18:22:13.602Z,4.31
2023-02-12T18:24:15.532Z,4.25
2023-02-12T18:26:16.957Z,4.31
2023-02-12T18:28:18.224Z,4.25
2023-02-12T18:30:19.647Z,4.07
2023-02-12T18:32:21.461Z,3.84
2023-02-12T18:34:22.948Z,3.71
2023-02-12T18:36:23.965Z,3.55
2023-02-12T18:38:25.772Z,3.34
2023-02-12T18:40:27.639Z,3.26
2023-02-12T18:42:28.787Z,3.41
2023-02-12T18:44:30.136Z,3.52
2023-02-12T18:48:33.106Z,3.5
2023-02-12T18:50:34.850Z,3.42
2023-02-12T18:52:36.936Z,3.81
2023-02-12T18:54:38.622Z,3.87
2023-02-12T18:56:40.387Z,4.06
2023-02-12T18:58:41.867Z,4.09
2023-02-12T19:00:43.435Z,4.27
2023-02-12T19:02:44.480Z,4.23
2023-02-12T19:04:46.270Z,4.45
2023-02-12T19:06:47.341Z,4.61
2023-02-12T19:08:48.450Z,4.68
2023-02-12T19:10:49.606Z,4.73
2023-02-12T19:12:50.703Z,4.74
2023-02-12T19:14:52.400Z,4.74
2023-02-12T19:16:54.323Z,4.74
2023-02-12T19:18:56.051Z,4.76
2023-02-12T19:20:57.528Z,4.7
2023-02-12T19:23:07.428Z,4.75
2023-02-12T19:24:59.546Z,4.66
2023-02-12T19:27:01.187Z,4.62
2023-02-12T19:29:02.550Z,4.63
2023-02-12T19:31:03.989Z,4.57
2023-02-12T19:33:05.115Z,4.6
2023-02-12T19:35:07.057Z,4.54
2023-02-12T19:37:10.894Z,4.61
2023-02-12T19:39:10.141Z,4.65
2023-02-12T19:41:11.146Z,4.68
2023-02-12T19:43:12.206Z,4.74
2023-02-12T19:45:14.060Z,4.73
2023-02-12T19:47:15.919Z,4.71
2023-02-12T19:49:17.238Z,4.72
2023-02-12T19:51:19.067Z,4.73
2023-02-12T19:53:20.136Z,4.71
2023-02-12T19:55:21.791Z,4.64
2023-02-12T19:57:23.576Z,4.64
2023-02-12T19:59:25.075Z,4.68
2023-02-12T20:01:26.896Z,4.62
2023-02-12T20:03:28.621Z,4.74
2023-02-12T20:05:29.922Z,4.75
2023-02-12T20:07:31.273Z,4.71
2023-02-12T20:09:33.155Z,4.78
2023-02-12T20:11:34.972Z,4.79
2023-02-12T20:13:36.850Z,4.8
2023-02-12T20:15:38.173Z,4.72
2023-02-12T20:17:40.032Z,4.64
2023-02-12T20:19:41.865Z,4.7
2023-02-12T20:21:43.664Z,4.67
2023-02-12T20:23:45.295Z,4.68
2023-02-12T20:25:46.498Z,4.71
2023-02-12T20:27:47.845Z,4.7
2023-02-12T20:29:49.154Z,4.61
2023-02-12T20:31:50.643Z,4.62
2023-02-12T20:33:51.891Z,4.62
2023-02-12T20:35:52.920Z,4.65
2023-02-12T20:37:53.897Z,4.63
2023-02-12T20:39:55.374Z,4.68
2023-02-12T20:41:56.489Z,4.72
2023-02-12T20:43:57.902Z,4.69
2023-02-12T20:48:00.999Z,4.61
2023-02-12T20:50:02.645Z,4.62
2023-02-12T20:52:03.940Z,4.6
2023-02-12T20:54:05.853Z,4.56
2023-02-12T20:56:06.869Z,4.55
2023-02-12T20:58:07.982Z,4.5
2023-02-12T21:00:09.916Z,4.48
2023-02-12T21:02:11.342Z,4.46
2023-02-12T21:04:12.498Z,4.44
2023-02-12T21:06:13.897Z,4.42
2023-02-12T21:08:15.579Z,4.45
2023-02-12T21:10:17.495Z,4.4
2023-02-12T21:12:19.206Z,4.4
2023-02-12T21:14:23.039Z,4.39
2023-02-12T21:16:22.741Z,4.42
2023-02-12T21:18:24.255Z,4.43
2023-02-12T21:20:26.048Z,4.4
2023-02-12T21:22:27.132Z,4.37
2023-02-12T21:24:28.221Z,4.35
2023-02-12T21:26:29.337Z,4.32
2023-02-12T21:28:30.704Z,4.34
2023-02-12T21:30:31.756Z,4.31
2023-02-12T21:32:33.673Z,4.31
2023-02-12T21:34:34.879Z,4.27
2023-02-12T21:36:36.107Z,4.22
2023-02-12T21:38:37.873Z,4.23
2023-02-12T21:40:39.223Z,4.21
2023-02-12T21:42:40.400Z,4.16
2023-02-12T21:44:41.797Z,4.15
2023-02-12T21:46:43.069Z,4.14
2023-02-12T21:48:44.225Z,4.11
2023-02-12T21:50:45.389Z,4.07
2023-02-12T21:54:48.266Z,4.03
2023-02-12T21:56:50.215Z,4.02
2023-02-12T21:58:51.587Z,4.01
2023-02-12T22:00:52.871Z,3.98
2023-02-12T22:02:54.086Z,3.96
2023-02-12T22:04:55.869Z,3.95
2023-02-12T22:06:57.820Z,3.91
2023-02-12T22:08:58.886Z,3.88
2023-02-12T22:11:00.180Z,3.9
2023-02-12T22:13:01.673Z,3.86
2023-02-12T22:15:03.239Z,3.81
2023-02-12T22:17:04.944Z,3.81
2023-02-12T22:19:06.878Z,3.76
2023-02-12T22:21:09.700Z,3.76
2023-02-12T22:23:10.187Z,3.72
2023-02-12T22:25:11.265Z,3.68
2023-02-12T22:27:12.476Z,3.67
2023-02-12T22:29:13.557Z,3.59
2023-02-12T22:31:15.021Z,3.59
2023-02-12T22:33:16.409Z,3.57
2023-02-12T22:35:26.549Z,3.54
2023-02-12T22:37:19.353Z,3.5
2023-02-12T22:39:20.421Z,3.47
2023-02-12T22:42:05.986Z,3.46
2023-02-12T22:44:07.775Z,3.45
2023-02-12T22:46:08.953Z,3.41
2023-02-12T22:48:10.126Z,3.42
2023-02-12T22:50:11.753Z,3.38
2023-02-12T22:52:13.023Z,3.32
2023-02-12T22:54:14.682Z,3.31
2023-02-12T22:56:16.605Z,3.29
2023-02-12T22:58:18.152Z,3.3
2023-02-12T23:00:19.854Z,3.27
2023-02-12T23:02:21.750Z,3.25
2023-02-12T23:04:22.996Z,3.25
2023-02-12T23:06:24.881Z,3.18
2023-02-12T23:08:26.734Z,3.14
2023-02-12T23:10:27.789Z,3.14
2023-02-12T23:12:28.894Z,3.08
2023-02-12T23:14:30.210Z,3.1
2023-02-12T23:16:31.590Z,3.06
2023-02-12T23:18:33.148Z,3.07
2023-02-12T23:20:34.962Z,3.06
2023-02-12T23:22:36.210Z,3.06
2023-02-12T23:24:38.065Z,3.06
2023-02-12T23:26:39.454Z,3.03
2023-02-12T23:28:41.493Z,3
2023-02-12T23:30:42.767Z,2.97
2023-02-12T23:32:43.877Z,2.88
2023-02-12T23:34:45.488Z,2.86
2023-02-12T23:36:46.836Z,2.81
2023-02-12T23:38:48.651Z,2.71
2023-02-12T23:40:50.594Z,2.66
2023-02-12T23:42:51.915Z,2.61
2023-02-12T23:44:55.503Z,2.59
2023-02-12T23:46:55.023Z,2.56
2023-02-12T23:48:56.656Z,2.53
2023-02-12T23:50:58.421Z,2.51
2023-02-12T23:53:00.107Z,2.49
2023-02-12T23:55:01.536Z,2.49
2023-02-12T23:57:03.053Z,2.47
2023-02-12T23:59:04.833Z,2.5
